createdAt,value
2024-03-12T00:02:49.624Z,99572.23
2024-03-12T00:08:54.460Z,99576.06
2024-03-12T00:15:20.011Z,99578.21
2024-03-12T00:21:46.818Z,99579.17
2024-03-12T00:28:11.401Z,99574.65
2024-03-12T00:34:36.958Z,99574.65
2024-03-12T00:40:46.523Z,99574.38
2024-03-12T00:46:14.913Z,99575.17
2024-03-12T00:51:31.541Z,99579.41
2024-03-12T00:56:41.934Z,99584.05
2024-03-12T01:02:59.695Z,99581.74
2024-03-12T01:08:48.106Z,99581.19
2024-03-12T01:14:39.266Z,99577.39
2024-03-12T01:20:46.065Z,99581.16
2024-03-12T01:26:25.993Z,99581.65
2024-03-12T01:32:52.116Z,99577.95
2024-03-12T01:39:05.222Z,99582.66
2024-03-12T01:44:59.231Z,99576.04
2024-03-12T01:51:05.574Z,99570.61
2024-03-12T01:57:30.086Z,99571.48
2024-03-12T02:03:55.260Z,99569.15
2024-03-12T02:10:21.066Z,99569.74
2024-03-12T02:15:59.649Z,99575.87
2024-03-12T02:22:14.008Z,99579.15
2024-03-12T02:27:52.745Z,99577.42
2024-03-12T02:34:15.172Z,99576.11
2024-03-12T02:40:17.258Z,99578.02
2024-03-12T02:46:22.410Z,99580.55
2024-03-12T02:52:39.590Z,99579.34
2024-03-12T02:58:18.788Z,99576.21
2024-03-12T03:04:16.192Z,99579.08
2024-03-12T03:10:33.879Z,99578.13
2024-03-12T03:16:39.735Z,99576.95
2024-03-12T03:22:49.741Z,99579.69
2024-03-12T03:28:57.935Z,99585.70
2024-03-12T03:35:23.692Z,99589.07
2024-03-12T03:41:48.713Z,99592.85
2024-03-12T03:47:39.095Z,99595.73
2024-03-12T03:53:45.044Z,99608.56
2024-03-12T03:59:32.523Z,99609.23
2024-03-12T04:05:16.146Z,99613.37
2024-03-12T04:10:49.774Z,99614.90
2024-03-12T04:16:58.809Z,99615.98
2024-03-12T04:22:23.189Z,99613.73
2024-03-12T04:27:38.326Z,99613.23
2024-03-12T04:33:54.175Z,99618.17
2024-03-12T04:39:44.168Z,99626.58
2024-03-12T04:46:09.335Z,99631.61
2024-03-12T04:52:35.235Z,99637.02
2024-03-12T04:58:41.466Z,99647.16
2024-03-12T05:04:46.842Z,99651.94
2024-03-12T05:10:52.421Z,99650.94
2024-03-12T05:17:18.733Z,99657.89
2024-03-12T05:23:16.097Z,99657.96
2024-03-12T05:29:34.504Z,99663.75
2024-03-12T05:35:00.438Z,99667.80
2024-03-12T05:40:54.104Z,99671.70
2024-03-12T05:47:11.440Z,99681.03
2024-03-12T05:53:06.412Z,99685.60
2024-03-12T05:59:31.629Z,99693.68
2024-03-12T06:05:29.904Z,99699.17
2024-03-12T06:11:32.833Z,99707.25
2024-03-12T06:17:58.642Z,99709.79
2024-03-12T06:23:27.276Z,99713.71
2024-03-12T06:29:53.044Z,99718.89
2024-03-12T06:35:38.722Z,99726.48
2024-03-12T06:40:49.807Z,99725.91
2024-03-12T06:45:57.730Z,99730.12
2024-03-12T06:52:11.496Z,99734.27
2024-03-12T06:58:01.067Z,99737.48
2024-03-12T07:03:30.596Z,99744.58
2024-03-12T07:09:17.317Z,99750.30
2024-03-12T07:15:04.616Z,99759.98
2024-03-12T07:21:22.164Z,99766.88
2024-03-12T07:27:32.998Z,99761.98
2024-03-12T07:33:36.451Z,99767.84
2024-03-12T07:40:02.914Z,99773.26
2024-03-12T07:46:28.493Z,99773.63
2024-03-12T07:52:17.971Z,99780.77
2024-03-12T07:58:04.379Z,99789.91
2024-03-12T08:04:13.166Z,99791.13
2024-03-12T08:09:43.742Z,99794.38
2024-03-12T08:15:08.144Z,99795.95
2024-03-12T08:20:22.800Z,99799.98
2024-03-12T08:26:36.820Z,99806.50
2024-03-12T08:33:02.559Z,99809.33
2024-03-12T08:39:28.767Z,99814.30
2024-03-12T08:45:00.188Z,99819.11
2024-03-12T08:50:17.281Z,99822.49
2024-03-12T08:55:30.999Z,99823.36
2024-03-12T09:00:48.564Z,99829.77
2024-03-12T09:06:19.463Z,99837.27
2024-03-12T09:12:08.534Z,99843.02
2024-03-12T09:17:57.462Z,99848.80
2024-03-12T09:24:02.891Z,99847.64
2024-03-12T09:29:19.316Z,99849.39
2024-03-12T09:34:26.927Z,99855.17
2024-03-12T09:39:44.665Z,99857.88
2024-03-12T09:44:59.217Z,99858.39
2024-03-12T09:50:59.106Z,99867.18
2024-03-12T09:56:39.953Z,99868.34
2024-03-12T10:02:37.338Z,99870.39
2024-03-12T10:09:08.757Z,99877.17
2024-03-12T10:15:35.131Z,99877.41
2024-03-12T10:21:59.700Z,99881.27
2024-03-12T10:27:44.313Z,99883.27
2024-03-12T10:34:11.104Z,99884.77
2024-03-12T10:40:37.052Z,99893.70
2024-03-12T10:45:57.671Z,99900.48
2024-03-12T10:51:14.883Z,99899.11
2024-03-12T10:56:34.086Z,99901.78
2024-03-12T11:01:54.377Z,99904.81
2024-03-12T11:07:04.626Z,99907.90
2024-03-12T11:12:26.316Z,99909.78
2024-03-12T11:18:13.970Z,99900.02
2024-03-12T11:24:20.887Z,99902.56
2024-03-12T11:30:52.981Z,99903.86
2024-03-12T11:36:51.136Z,99904.52
2024-03-12T11:42:44.367Z,99905.21
2024-03-12T11:48:23.461Z,99905.59
2024-03-12T11:54:32.526Z,99909.48
2024-03-12T12:00:57.677Z,99910.39
2024-03-12T12:07:18.242Z,99914.08
2024-03-12T12:13:33.664Z,99911.34
2024-03-12T12:19:45.475Z,99907.95
2024-03-12T12:26:11.609Z,99906.85
2024-03-12T12:31:59.652Z,99912.28
2024-03-12T12:37:22.111Z,99911.84
2024-03-12T12:42:51.434Z,99910.67
2024-03-12T12:48:25.922Z,99918.30
2024-03-12T12:54:43.881Z,99918.81
2024-03-12T13:00:51.509Z,99919.19
2024-03-12T13:07:05.773Z,99918.41
2024-03-12T13:13:32.277Z,99919.86
2024-03-12T13:19:03.143Z,99919.30
2024-03-12T13:24:33.811Z,99923.30
2024-03-12T13:30:30.492Z,99914.84
2024-03-12T13:35:45.090Z,99922.89
2024-03-12T13:41:10.725Z,99927.58
2024-03-12T13:46:31.008Z,99930.13
2024-03-12T13:52:56.764Z,99932.27
2024-03-12T13:58:27.735Z,99932.87
2024-03-12T14:03:56.636Z,99932.73
2024-03-12T14:09:39.331Z,99929.50
2024-03-12T14:15:56.772Z,99931.53
2024-03-12T14:22:02.208Z,99937.77
2024-03-12T14:27:37.907Z,99941.14
2024-03-12T14:33:45.888Z,99947.01
2024-03-12T14:39:17.676Z,99945.91
2024-03-12T14:44:48.735Z,99950.80
2024-03-12T14:50:21.045Z,99947.24
2024-03-12T14:55:48.209Z,99944.59
2024-03-12T15:01:30.656Z,99943.61
2024-03-12T15:07:04.887Z,99942.83
2024-03-12T15:12:12.434Z,99947.48
2024-03-12T15:17:42.078Z,99954.52
2024-03-12T15:23:07.255Z,99960.27
2024-03-12T15:28:34.340Z,99963.60
2024-03-12T15:33:45.513Z,99969.02
2024-03-12T15:39:52.467Z,99969.22
2024-03-12T15:45:22.470Z,99972.06
2024-03-12T15:50:46.031Z,99977.88
2024-03-12T15:56:34.473Z,99982.79
2024-03-12T16:01:57.683Z,99992.30
2024-03-12T16:08:07.438Z,99988.11
2024-03-12T16:14:21.798Z,99996.32
2024-03-12T16:20:15.417Z,99999.69
2024-03-12T16:26:35.176Z,100005.59
2024-03-12T16:32:44.786Z,100007.20
2024-03-12T16:38:25.771Z,100014.14
2024-03-12T16:43:59.774Z,100015.81
2024-03-12T16:50:07.625Z,100018.23
2024-03-12T16:55:52.430Z,100020.26
2024-03-12T17:01:40.038Z,100020.04
2024-03-12T17:07:34.027Z,100017.70
2024-03-12T17:13:32.756Z,100018.84
2024-03-12T17:18:59.690Z,100018.02
2024-03-12T17:24:45.071Z,100024.90
2024-03-12T17:30:18.407Z,100028.59
2024-03-12T17:35:54.706Z,100034.08
2024-03-12T17:41:28.845Z,100038.42
2024-03-12T17:47:16.389Z,100038.62
2024-03-12T17:53:16.927Z,100042.05
2024-03-12T17:59:02.254Z,100046.26
2024-03-12T18:05:17.860Z,100053.67
2024-03-12T18:11:17.181Z,100061.31
2024-03-12T18:16:45.889Z,100065.18
2024-03-12T18:22:24.756Z,100061.29
2024-03-12T18:27:57.450Z,100070.59
2024-03-12T18:34:05.606Z,100076.15
2024-03-12T18:40:19.005Z,100085.73
2024-03-12T18:45:54.214Z,100082.44
2024-03-12T18:51:52.993Z,100090.34
2024-03-12T18:57:52.390Z,100095.13
2024-03-12T19:03:23.454Z,100103.90
2024-03-12T19:08:41.596Z,100105.11
2024-03-12T19:14:38.123Z,100107.89
2024-03-12T19:20:44.857Z,100112.92
2024-03-12T19:27:17.182Z,100114.39
2024-03-12T19:32:47.628Z,100111.20
2024-03-12T19:38:16.984Z,100115.13
2024-03-12T19:43:51.602Z,100115.95
2024-03-12T19:49:21.504Z,100118.17
2024-03-12T19:54:59.163Z,100117.52
2024-03-12T20:00:54.414Z,100122.66
2024-03-12T20:06:06.920Z,100129.67
2024-03-12T20:11:34.456Z,100127.88
2024-03-12T20:17:01.837Z,100127.46
2024-03-12T20:22:12.469Z,100133.02
2024-03-12T20:27:22.702Z,100132.35
2024-03-12T20:33:00.417Z,100129.38
2024-03-12T20:38:31.114Z,100130.80
2024-03-12T20:43:37.403Z,100130.46
2024-03-12T20:49:04.612Z,100130.01
2024-03-12T20:54:10.429Z,100136.04
2024-03-12T21:00:08.595Z,100133.26
2024-03-12T21:05:24.431Z,100136.02
2024-03-12T21:10:45.488Z,100132.52
2024-03-12T21:16:32.165Z,100135.73
2024-03-12T21:21:37.104Z,100141.42
2024-03-12T21:27:46.217Z,100145.48
2024-03-12T21:33:48.615Z,100152.23
2024-03-12T21:39:55.906Z,100158.92
2024-03-12T21:45:35.551Z,100159.63
2024-03-12T21:51:16.902Z,100156.95
2024-03-12T21:56:42.328Z,100155.27
2024-03-12T22:02:52.585Z,100162.45
2024-03-12T22:09:08.357Z,100166.94
2024-03-12T22:14:56.813Z,100169.36
2024-03-12T22:21:05.288Z,100173.23
2024-03-12T22:27:30.014Z,100179.90
2024-03-12T22:32:45.522Z,100179.10
2024-03-12T22:37:57.151Z,100181.88
2024-03-12T22:43:04.590Z,100189.58
2024-03-12T22:48:29.806Z,100197.74
2024-03-12T22:53:46.790Z,100195.49
2024-03-12T22:59:14.768Z,100198.78
2024-03-12T23:04:55.689Z,100197.38
2024-03-12T23:11:03.956Z,100203.10
2024-03-12T23:17:29.485Z,100200.21
2024-03-12T23:23:12.117Z,100199.73
2024-03-12T23:28:45.328Z,100202.50
2024-03-12T23:34:36.188Z,100201.83
2024-03-12T23:40:37.756Z,100201.48
2024-03-12T23:46:54.951Z,100203.52
2024-03-12T23:52:22.212Z,100208.86
2024-03-12T23:57:41.422Z,100207.32
